< Typhoon 196508 1965 Season Typhoon 196510 >
Typhoon 196509 (DINAH)
General InformationTrack Information on Google Maps || Disaster Info.ResourceGoogle EarthGE AnimationAtom FeedGeoJSON
Detalied Best Track (Time Zone = UTC)
Year Month Day Hour Lat. Long. Pressure (hPa) Wind (kt) Class Image Chart
1965 6 10 06 8.8 151.6 1006 0 2 -- Chart
1965 6 10 12 9.8 150.4 1006 0 2 -- Chart
1965 6 10 18 10.8 149.2 1006 0 2 -- Chart
1965 6 11 00 11.0 148.0 1006 0 2 -- Chart
1965 6 11 06 11.2 147.1 1008 0 2 -- Chart
1965 6 11 12 11.3 146.3 1008 0 2 -- Chart
1965 6 11 18 11.4 145.4 1006 0 2 -- Chart
1965 6 12 00 11.5 144.4 1006 0 2 -- Chart
1965 6 12 06 11.7 143.3 1006 0 2 -- Chart
1965 6 12 12 12.2 142.5 1006 0 2 -- Chart
1965 6 12 18 12.2 141.3 1006 0 2 -- Chart
1965 6 13 00 12.2 140.0 995 0 9 -- Chart
1965 6 13 06 12.3 139.2 995 0 9 -- Chart
1965 6 13 12 12.5 138.5 995 0 9 -- Chart
1965 6 13 18 12.6 137.8 995 0 9 -- Chart
1965 6 14 00 13.0 136.8 990 0 9 -- Chart
1965 6 14 06 13.5 135.7 985 0 9 -- Chart
1965 6 14 12 13.6 134.6 980 0 9 -- Chart
1965 6 14 18 13.8 133.3 970 0 9 -- Chart
1965 6 15 00 14.2 132.1 960 0 9 -- Chart
1965 6 15 06 14.6 131.0 950 0 9 -- Chart
1965 6 15 12 15.0 130.0 950 0 9 -- Chart
1965 6 15 18 15.4 129.0 950 0 9 -- Chart
1965 6 16 00 15.7 128.0 950 0 9 -- Chart
1965 6 16 06 16.2 127.1 945 0 9 -- Chart
1965 6 16 12 16.4 126.2 940 0 9 -- Chart
1965 6 16 18 16.7 125.3 940 0 9 -- Chart
1965 6 17 00 17.1 124.3 935 0 9 -- Chart
1965 6 17 06 17.8 123.5 940 0 9 -- Chart
1965 6 17 12 18.6 122.8 940 0 9 -- Chart
1965 6 17 18 19.4 122.2 940 0 9 -- Chart
1965 6 18 00 20.5 121.5 950 0 9 -- Chart
1965 6 18 06 21.5 121.0 970 0 9 -- Chart
1965 6 18 12 22.4 121.0 980 0 9 -- Chart
1965 6 18 18 23.1 121.0 985 0 9 -- Chart
1965 6 19 00 25.5 121.5 995 0 9 -- Chart
1965 6 19 06 27.3 123.0 1002 0 9 -- Chart
1965 6 19 12 29.4 125.5 1002 0 2 -- Chart
1965 6 19 18 31.2 128.3 1002 0 2 -- Chart
1965 6 20 00 34.0 132.1 1002 0 2 -- Chart
1965 6 20 06 36.4 135.6 1003 0 2 -- Chart
1965 6 20 12 36.7 137.7 1004 0 2 -- Chart
1965 6 20 18 37.4 139.0 1004 0 2 -- Chart
1965 6 21 00 37.8 143.0 1004 0 2 -- Chart
1965 6 21 06 39.0 144.5 1003 0 2 -- Chart
1965 6 21 12 40.2 146.7 1002 0 2 -- Chart
1965 6 21 18 40.9 150.0 996 0 2 -- Chart
1965 6 22 00 42.0 152.0 996 0 2 -- Chart
1965 6 22 06 43.0 153.0 996 0 2 -- Chart
1965 6 22 12 43.0 155.0 990 0 2 -- Chart
1965 6 22 18 43.0 157.0 996 0 2 -- Chart
1965 6 23 00 40.8 158.4 1000 0 2 -- Chart
1965 6 23 06 40.4 159.3 999 0 2 -- Chart
1965 6 23 12 40.1 160.1 1002 0 2 -- Chart
1965 6 23 18 41.1 162.0 1002 0 2 -- Chart
1965 6 24 00 41.6 164.0 1000 0 2 -- Chart
1965 6 24 06 42.1 165.3 1000 0 2 -- Chart
Japan Meteorological Agency Best Track Data | Correction Date : 1989-06-01
< Typhoon 196508 1965 Season Typhoon 196510 >

Help